X  Blizu METAR Podaci o vazduhoplovstvu     LGRX Patras Araxos Agamemnon Airport
Temperatura
17°C Temperatura
12°C Tačka Rose
73% Vlaga



Vetar
5 M/S
12 MPS
19 KM/S
10 Čvorovi



50°
SI
Trenutna situacija

Delimično oblačno Delimično oblačno
Vazdušni pritisak 1023.92 (hPa) - 30.24 (inHg)
Vidljivost 6.2 (Milje) - 10 (km)
Aerodrom
Aerodromski kod. LGRX

Lokacija: Patras Araxos Agamemnon Airport
Udaljenost: 108 (km)

Metar:
LGRX 050850Z 05010KT 9999 FEW025 SCT050 17/12 Q1024

Vreme: 05-12-2022 10:50 EET